Terminal Aerodrome Forecast
Issued by NWS

Home | Current Version | Previous Version | Text Only | Print | Product List | Glossary On
Versions: 1 2 3 4 5 6 7 8 9 10 11 12 13 14
645
FTUS42 TJSJ 281120
TAFIST
TAF
TIST 281120Z 2812/2912 10010KT P6SM FEW020
     FM281300 13012KT P6SM VCSH SCT030 BKN080
     FM282330 09007KT P6SM VCSH SCT030 BKN060=

USA.gov is the U.S. government's official web portal to all federal, state and local government web resources and services.